Time;durP1;ratioP1;P1;durP2;ratioP2;P2;SDS_P1;SDS_P2;PMS_P1;PMS_P2;Temp;Humidity;BMP_temperature;BMP_pressure;BME280_temperature;BME280_humidity;BME280_pressure;Samples;Min_cycle;Max_cycle;Signal;HPM_P1;HPM_P2
2022/12/14 00:01:23;;;;;;;;;;;21.70;59.90;;;;;;1563992;74;1154;-71
2022/12/14 00:03:25;;;;;;;;;;;21.70;59.90;;;;;;1561113;74;981;-73
2022/12/14 00:05:27;;;;;;;;;;;21.70;59.80;;;;;;1574630;74;1442;-75
2022/12/14 00:07:29;;;;;;;;;;;21.70;59.80;;;;;;1565903;74;587;-74
2022/12/14 00:09:31;;;;;;;;;;;21.80;59.70;;;;;;1564648;74;1934;-74
2022/12/14 00:11:33;;;;;;;;;;;21.80;59.70;;;;;;1569741;74;1206;-73
2022/12/14 00:13:35;;;;;;;;;;;21.70;59.70;;;;;;1560097;74;741;-72
2022/12/14 00:15:37;;;;;;;;;;;21.80;59.60;;;;;;1563969;74;957;-74
2022/12/14 00:17:39;;;;;;;;;;;21.80;59.60;;;;;;1562052;74;738;-73
2022/12/14 00:19:41;;;;;;;;;;;21.80;59.60;;;;;;1561211;74;1478;-73
2022/12/14 00:21:43;;;;;;;;;;;21.80;59.60;;;;;;1566664;74;1185;-73
2022/12/14 00:23:44;;;;;;;;;;;21.80;59.60;;;;;;1561534;74;712;-71
2022/12/14 00:25:46;;;;;;;;;;;21.80;59.60;;;;;;1560696;74;688;-72
2022/12/14 00:27:49;;;;;;;;;;;21.80;59.60;;;;;;1562067;74;734;-71
2022/12/14 00:29:51;;;;;;;;;;;21.80;59.80;;;;;;1566540;74;1912;-72
2022/12/14 00:31:52;;;;;;;;;;;21.80;59.80;;;;;;1564028;74;1138;-71
2022/12/14 00:33:54;;;;;;;;;;;21.70;59.80;;;;;;1560362;74;1448;-70
2022/12/14 00:35:56;;;;;;;;;;;21.80;59.90;;;;;;1561429;74;793;-71
2022/12/14 00:37:58;;;;;;;;;;;21.70;60.00;;;;;;1559433;74;790;-71
2022/12/14 00:40:00;;;;;;;;;;;21.70;59.90;;;;;;1555747;74;718;-72
2022/12/14 00:42:02;;;;;;;;;;;21.70;59.90;;;;;;1558239;74;1202;-73
2022/12/14 00:44:04;;;;;;;;;;;21.20;59.60;;;;;;1554370;74;621;-71
2022/12/14 00:46:06;;;;;;;;;;;21.70;59.90;;;;;;1556919;74;647;-72
2022/12/14 00:48:07;;;;;;;;;;;21.70;60.00;;;;;;1559950;74;1324;-73
2022/12/14 00:50:09;;;;;;;;;;;21.70;60.00;;;;;;1568019;74;1927;-70
2022/12/14 00:52:11;;;;;;;;;;;21.70;60.10;;;;;;1551199;74;1139;-73
2022/12/14 00:54:13;;;;;;;;;;;21.80;60.20;;;;;;1558123;74;695;-72
2022/12/14 00:56:15;;;;;;;;;;;21.80;60.20;;;;;;1548692;74;778;-73
2022/12/14 00:58:18;;;;;;;;;;;21.70;60.20;;;;;;1556669;74;687;-73
2022/12/14 01:00:20;;;;;;;;;;;21.70;60.20;;;;;;1559323;74;593;-73
2022/12/14 01:02:21;;;;;;;;;;;21.80;60.10;;;;;;1570149;74;1564;-73
2022/12/14 01:04:25;;;;;;;;;;;21.80;60.00;;;;;;1578933;74;783;-72
2022/12/14 01:06:26;;;;;;;;;;;21.80;60.00;;;;;;1557488;74;625;-73
2022/12/14 01:08:34;;;;;;;;;;;21.80;60.00;;;;;;1560163;74;638;-71
2022/12/14 01:10:32;;;;;;;;;;;21.80;60.00;;;;;;1568696;74;1926;-73
2022/12/14 01:12:34;;;;;;;;;;;21.80;59.90;;;;;;1561659;74;1142;-73
2022/12/14 01:14:36;;;;;;;;;;;21.80;59.90;;;;;;1567425;74;641;-72
2022/12/14 01:16:37;;;;;;;;;;;21.80;59.90;;;;;;1568113;74;1434;-72
2022/12/14 01:18:40;;;;;;;;;;;21.80;59.90;;;;;;1569899;74;715;-73
2022/12/14 01:20:42;;;;;;;;;;;21.80;59.80;;;;;;1556581;74;1328;-72
2022/12/14 01:22:44;;;;;;;;;;;21.80;59.80;;;;;;1563718;74;707;-73
2022/12/14 01:24:46;;;;;;;;;;;21.80;59.90;;;;;;1564753;74;742;-72
2022/12/14 01:26:48;;;;;;;;;;;21.80;59.80;;;;;;1560816;74;730;-71
2022/12/14 01:28:56;;;;;;;;;;;21.90;59.80;;;;;;1556066;74;1463;-73
2022/12/14 01:30:54;;;;;;;;;;;21.90;60.00;;;;;;1578662;74;1929;-73
2022/12/14 01:32:56;;;;;;;;;;;21.80;59.80;;;;;;1568906;74;652;-71
2022/12/14 01:34:58;;;;;;;;;;;21.80;59.70;;;;;;1562982;74;719;-72
2022/12/14 01:37:00;;;;;;;;;;;21.80;59.80;;;;;;1559650;74;693;-71
2022/12/14 01:39:03;;;;;;;;;;;21.80;59.70;;;;;;1567608;74;584;-73
2022/12/14 01:41:05;;;;;;;;;;;21.80;59.80;;;;;;1573962;74;1160;-70
2022/12/14 01:43:11;;;;;;;;;;;21.80;59.70;;;;;;1563157;74;1464;-70
2022/12/14 01:45:17;;;;;;;;;;;21.80;59.70;;;;;;1571488;74;846;-73
2022/12/14 01:47:21;;;;;;;;;;;21.80;59.70;;;;;;1556818;74;568;-73
2022/12/14 01:49:33;;;;;;;;;;;21.80;59.70;;;;;;1556910;74;708;-71
2022/12/14 01:51:35;;;;;;;;;;;21.80;59.70;;;;;;1562376;74;1934;-72
2022/12/14 01:53:37;;;;;;;;;;;21.80;59.70;;;;;;1562749;74;719;-71
2022/12/14 01:55:40;;;;;;;;;;;21.80;59.70;;;;;;1565883;74;794;-71
2022/12/14 01:57:46;;;;;;;;;;;21.80;59.70;;;;;;1574443;74;1355;-70
2022/12/14 01:59:48;;;;;;;;;;;21.80;59.70;;;;;;1557605;74;750;-69
2022/12/14 02:01:50;;;;;;;;;;;21.80;59.70;;;;;;1552466;74;1242;-71
2022/12/14 02:03:52;;;;;;;;;;;21.80;59.70;;;;;;1571066;74;792;-73
2022/12/14 02:05:56;;;;;;;;;;;21.80;59.70;;;;;;1565723;74;611;-72
2022/12/14 02:07:58;;;;;;;;;;;21.80;59.70;;;;;;1558585;74;624;-72
2022/12/14 02:10:01;;;;;;;;;;;21.80;59.70;;;;;;1557354;74;717;-72
2022/12/14 02:12:06;;;;;;;;;;;21.80;59.80;;;;;;1561992;74;1926;-72
2022/12/14 02:14:08;;;;;;;;;;;21.80;59.80;;;;;;1565801;74;784;-69
2022/12/14 02:16:10;;;;;;;;;;;21.80;59.80;;;;;;1558087;74;844;-71
2022/12/14 02:18:14;;;;;;;;;;;21.80;59.80;;;;;;1568098;74;722;-72
2022/12/14 02:20:16;;;;;;;;;;;21.80;59.80;;;;;;1573127;74;719;-71
2022/12/14 02:22:32;;;;;;;;;;;21.70;59.80;;;;;;1570228;74;1129;-71
2022/12/14 02:24:35;;;;;;;;;;;21.70;59.80;;;;;;1561854;74;1263;-69
2022/12/14 02:26:48;;;;;;;;;;;21.70;59.80;;;;;;1563316;74;1511;-71
2022/12/14 02:28:51;;;;;;;;;;;21.70;60.00;;;;;;1564641;74;899;-69
2022/12/14 02:30:55;;;;;;;;;;;21.70;60.10;;;;;;1566687;74;1934;-70
2022/12/14 02:33:01;;;;;;;;;;;21.70;60.10;;;;;;1562502;74;1670;-68
2022/12/14 02:35:05;;;;;;;;;;;21.70;60.20;;;;;;1556627;74;1593;-69
2022/12/14 02:37:17;;;;;;;;;;;21.70;60.20;;;;;;1556555;74;1680;-70
2022/12/14 02:39:21;;;;;;;;;;;21.60;60.20;;;;;;1551514;74;1434;-71
2022/12/14 02:41:27;;;;;;;;;;;21.70;60.30;;;;;;1556076;74;1162;-71
2022/12/14 02:43:31;;;;;;;;;;;21.60;60.20;;;;;;1572088;74;1855;-69
2022/12/14 02:45:43;;;;;;;;;;;21.60;60.20;;;;;;1561594;74;599;-71
2022/12/14 02:47:50;;;;;;;;;;;21.60;60.30;;;;;;1566932;74;764;-70
2022/12/14 02:50:02;;;;;;;;;;;21.60;60.30;;;;;;1561926;74;956;-71
2022/12/14 02:52:11;;;;;;;;;;;21.60;60.30;;;;;;1547092;74;1922;-70
2022/12/14 02:54:15;;;;;;;;;;;21.60;60.30;;;;;;1567256;74;1517;-71
2022/12/14 02:56:17;;;;;;;;;;;21.60;60.20;;;;;;1581366;74;775;-70
2022/12/14 02:58:39;;;;;;;;;;;21.60;60.20;;;;;;1568455;74;803;-72
2022/12/14 03:00:41;;;;;;;;;;;21.60;60.30;;;;;;1561997;74;1187;-69
2022/12/14 03:02:43;;;;;;;;;;;21.60;60.30;;;;;;1540217;71;228584;-64
2022/12/14 03:04:48;;;;;;;;;;;21.50;60.30;;;;;;1519080;76;716;-65
2022/12/14 03:06:51;;;;;;;;;;;21.50;60.20;;;;;;1486479;78;809;-65
2022/12/14 03:08:54;;;;;;;;;;;21.50;60.20;;;;;;1518534;76;1808;-65
2022/12/14 03:10:57;;;;;;;;;;;21.50;60.20;;;;;;1531221;76;1937;-65
2022/12/14 03:13:04;;;;;;;;;;;21.50;60.30;;;;;;1534474;76;697;-65
2022/12/14 03:15:06;;;;;;;;;;;21.50;60.30;;;;;;1532412;76;694;-64
2022/12/14 03:17:10;;;;;;;;;;;21.50;60.30;;;;;;1536111;76;769;-65
2022/12/14 03:19:14;;;;;;;;;;;21.60;60.40;;;;;;1532963;76;1896;-65
2022/12/14 03:21:16;;;;;;;;;;;21.50;60.40;;;;;;1532968;76;1809;-65
2022/12/14 03:23:19;;;;;;;;;;;21.50;60.30;;;;;;1529881;76;809;-67
2022/12/14 03:25:21;;;;;;;;;;;21.50;60.30;;;;;;1522826;76;747;-64
2022/12/14 03:27:31;;;;;;;;;;;21.60;60.60;;;;;;1526168;76;612;-64
2022/12/14 03:29:33;;;;;;;;;;;21.60;60.60;;;;;;1529698;76;1119;-65
2022/12/14 03:31:37;;;;;;;;;;;21.70;60.50;;;;;;1515870;76;1920;-65
2022/12/14 03:33:39;;;;;;;;;;;21.60;60.40;;;;;;1533701;76;641;-63
2022/12/14 03:35:51;;;;;;;;;;;21.60;60.60;;;;;;1532544;76;1564;-64
2022/12/14 03:37:55;;;;;;;;;;;21.60;60.70;;;;;;1440091;80;1177;-64
2022/12/14 03:39:57;;;;;;;;;;;21.60;60.60;;;;;;1510301;76;1045;-64
2022/12/14 03:42:00;;;;;;;;;;;21.60;60.60;;;;;;1534642;76;701;-64
2022/12/14 03:44:04;;;;;;;;;;;21.60;60.70;;;;;;1532784;76;777;-63
2022/12/14 03:46:10;;;;;;;;;;;21.60;60.80;;;;;;1526056;76;705;-64
2022/12/14 03:48:29;;;;;;;;;;;21.60;60.70;;;;;;1534294;76;1149;-63
2022/12/14 03:50:41;;;;;;;;;;;21.70;60.70;;;;;;1532991;76;1575;-64
2022/12/14 03:52:51;;;;;;;;;;;21.60;60.70;;;;;;1525131;76;1812;-64
2022/12/14 03:54:57;;;;;;;;;;;21.60;60.60;;;;;;1533837;76;644;-63
2022/12/14 03:57:01;;;;;;;;;;;21.60;60.70;;;;;;1532926;76;1802;-64
2022/12/14 03:59:10;;;;;;;;;;;21.60;60.70;;;;;;1534131;76;1165;-64
2022/12/14 04:01:14;;;;;;;;;;;21.60;60.80;;;;;;1534991;76;853;-63
2022/12/14 04:03:23;;;;;;;;;;;21.60;60.90;;;;;;1535941;76;886;-63
2022/12/14 04:05:26;;;;;;;;;;;21.60;60.90;;;;;;1534227;76;721;-63
2022/12/14 04:07:41;;;;;;;;;;;21.60;60.80;;;;;;1536492;76;1356;-63
2022/12/14 04:09:45;;;;;;;;;;;21.60;60.90;;;;;;1533466;76;1079;-64
2022/12/14 04:18:58;;;;;;;;;;;21.60;61.00;;;;;;1534366;76;1677;-63
2022/12/14 04:21:05;;;;;;;;;;;21.60;61.10;;;;;;1532194;76;733;-63
2022/12/14 04:23:08;;;;;;;;;;;21.60;61.10;;;;;;1532885;76;728;-63
2022/12/14 04:27:36;;;;;;;;;;;21.60;61.10;;;;;;1533574;76;553;-62
2022/12/14 04:29:56;;;;;;;;;;;21.60;61.20;;;;;;1530553;76;1789;-63
2022/12/14 04:31:59;;;;;;;;;;;21.60;61.20;;;;;;1530105;76;2060;-62
2022/12/14 04:34:02;;;;;;;;;;;21.60;61.30;;;;;;1534161;76;744;-64
2022/12/14 04:36:04;;;;;;;;;;;21.60;61.20;;;;;;1534514;76;744;-64
2022/12/14 04:38:07;;;;;;;;;;;21.60;61.10;;;;;;1533267;76;1145;-65
2022/12/14 04:40:14;;;;;;;;;;;21.60;61.00;;;;;;1535219;76;741;-65
2022/12/14 04:42:16;;;;;;;;;;;21.70;61.00;;;;;;1532045;76;890;-65
2022/12/14 04:44:19;;;;;;;;;;;21.60;61.00;;;;;;1524673;76;720;-64
2022/12/14 04:46:23;;;;;;;;;;;21.60;60.90;;;;;;1534007;76;1792;-64
2022/12/14 04:48:38;;;;;;;;;;;21.70;61.00;;;;;;1536627;75;1151;-64
2022/12/14 04:50:42;;;;;;;;;;;21.60;60.90;;;;;;1533194;76;1014;-64
2022/12/14 04:52:45;;;;;;;;;;;21.60;60.90;;;;;;1522148;76;1938;-65
2022/12/14 04:54:58;;;;;;;;;;;21.60;60.90;;;;;;1531814;76;1044;-63
2022/12/14 04:57:02;;;;;;;;;;;21.70;60.90;;;;;;1532872;76;780;-66
2022/12/14 04:59:04;;;;;;;;;;;21.70;61.00;;;;;;1533265;76;1176;-66
2022/12/14 05:01:08;;;;;;;;;;;21.70;61.20;;;;;;1533347;76;1520;-66
2022/12/14 05:03:14;;;;;;;;;;;21.70;61.20;;;;;;1543364;76;1826;-65
2022/12/14 05:05:20;;;;;;;;;;;21.60;61.00;;;;;;1530856;76;1544;-66
2022/12/14 05:07:29;;;;;;;;;;;21.60;61.10;;;;;;1530505;76;1682;-66
2022/12/14 05:09:36;;;;;;;;;;;21.70;61.30;;;;;;1527269;76;1643;-66
2022/12/14 05:11:46;;;;;;;;;;;21.70;61.30;;;;;;1529063;76;2050;-66
2022/12/14 05:13:48;;;;;;;;;;;21.70;61.30;;;;;;1531870;76;1507;-66
2022/12/14 05:15:52;;;;;;;;;;;21.60;61.30;;;;;;1533912;76;643;-66
2022/12/14 05:17:53;;;;;;;;;;;21.70;61.40;;;;;;1530382;76;913;-64
2022/12/14 05:19:55;;;;;;;;;;;21.60;61.40;;;;;;1534374;76;746;-67
2022/12/14 05:21:58;;;;;;;;;;;21.60;61.40;;;;;;1534253;76;893;-66
2022/12/14 05:24:01;;;;;;;;;;;21.60;61.40;;;;;;1535420;76;684;-66
2022/12/14 05:26:03;;;;;;;;;;;21.60;61.40;;;;;;1529668;76;738;-65
2022/12/14 05:28:05;;;;;;;;;;;21.60;61.40;;;;;;1535797;76;1552;-64
2022/12/14 05:30:07;;;;;;;;;;;21.60;61.40;;;;;;1534287;76;700;-65
2022/12/14 05:32:10;;;;;;;;;;;21.60;61.40;;;;;;1534705;76;1936;-65
2022/12/14 05:34:12;;;;;;;;;;;21.60;61.50;;;;;;1537893;76;770;-65
2022/12/14 05:36:14;;;;;;;;;;;21.60;61.40;;;;;;1533930;76;740;-65
2022/12/14 05:38:16;;;;;;;;;;;21.60;61.40;;;;;;1533812;76;1130;-65
2022/12/14 05:40:17;;;;;;;;;;;21.60;61.40;;;;;;1534255;76;721;-64
2022/12/14 05:42:19;;;;;;;;;;;21.60;61.50;;;;;;1533248;76;1574;-63
2022/12/14 05:44:21;;;;;;;;;;;21.60;61.40;;;;;;1536244;76;697;-66
2022/12/14 05:46:23;;;;;;;;;;;21.60;61.50;;;;;;1536328;76;768;-64
2022/12/14 05:48:25;;;;;;;;;;;21.60;61.50;;;;;;1532775;76;1133;-64
2022/12/14 05:50:27;;;;;;;;;;;21.70;61.50;;;;;;1535157;76;721;-64
2022/12/14 05:52:29;;;;;;;;;;;21.70;61.40;;;;;;1536931;76;1921;-64
2022/12/14 05:54:31;;;;;;;;;;;21.70;61.40;;;;;;1535829;76;775;-64
2022/12/14 05:56:32;;;;;;;;;;;21.70;61.30;;;;;;1531439;76;1557;-64
2022/12/14 05:58:34;;;;;;;;;;;21.60;61.20;;;;;;1532233;76;1086;-64
2022/12/14 06:00:36;;;;;;;;;;;21.60;61.30;;;;;;1533190;76;739;-64
2022/12/14 06:02:38;;;;;;;;;;;21.70;61.30;;;;;;1534776;76;896;-62
2022/12/14 06:04:40;;;;;;;;;;;21.60;61.40;;;;;;1534692;76;789;-64
2022/12/14 06:06:42;;;;;;;;;;;21.70;61.50;;;;;;1535660;76;692;-64
2022/12/14 06:08:44;;;;;;;;;;;21.70;61.60;;;;;;1537026;76;1149;-64
2022/12/14 06:10:46;;;;;;;;;;;21.80;61.50;;;;;;1536394;76;1562;-64
2022/12/14 06:12:48;;;;;;;;;;;21.80;61.30;;;;;;1533623;76;1932;-64
2022/12/14 06:14:50;;;;;;;;;;;21.80;61.10;;;;;;1527969;76;795;-65
2022/12/14 06:16:51;;;;;;;;;;;21.80;60.90;;;;;;1532885;76;690;-64
2022/12/14 06:18:54;;;;;;;;;;;21.80;60.80;;;;;;1535837;76;1160;-64
2022/12/14 06:20:57;;;;;;;;;;;21.70;60.70;;;;;;1536035;76;586;-64
2022/12/14 06:22:59;;;;;;;;;;;21.80;60.60;;;;;;1533951;76;736;-64
2022/12/14 06:25:01;;;;;;;;;;;21.70;60.40;;;;;;1535562;76;1560;-64
2022/12/14 06:27:03;;;;;;;;;;;21.70;60.30;;;;;;1535845;76;719;-64
2022/12/14 06:29:05;;;;;;;;;;;21.70;60.20;;;;;;1535510;76;1138;-65
2022/12/14 06:31:07;;;;;;;;;;;21.70;60.20;;;;;;1538149;76;726;-66
2022/12/14 06:33:08;;;;;;;;;;;21.70;60.20;;;;;;1532789;76;1917;-63
2022/12/14 06:35:10;;;;;;;;;;;21.70;60.00;;;;;;1521881;77;751;-64
2022/12/14 06:37:13;;;;;;;;;;;21.80;60.00;;;;;;1533664;76;730;-64
2022/12/14 06:39:15;;;;;;;;;;;21.80;60.10;;;;;;1536202;76;1667;-65
2022/12/14 06:41:17;;;;;;;;;;;21.80;60.10;;;;;;1527747;76;732;-65
2022/12/14 06:43:19;;;;;;;;;;;21.80;60.00;;;;;;1531244;76;710;-64
2022/12/14 06:45:21;;;;;;;;;;;21.90;60.00;;;;;;1537523;76;779;-64
2022/12/14 06:47:24;;;;;;;;;;;21.80;59.90;;;;;;1523920;76;689;-63
2022/12/14 06:49:26;;;;;;;;;;;21.80;59.80;;;;;;1535993;76;1145;-64
2022/12/14 06:51:28;;;;;;;;;;;21.80;59.70;;;;;;1535663;76;740;-64
2022/12/14 06:53:30;;;;;;;;;;;21.80;59.70;;;;;;1536881;76;1957;-64
2022/12/14 06:55:32;;;;;;;;;;;21.80;59.70;;;;;;1536371;76;703;-64
2022/12/14 06:57:34;;;;;;;;;;;21.70;59.70;;;;;;1537133;76;721;-64
2022/12/14 06:59:35;;;;;;;;;;;21.70;59.60;;;;;;1533215;76;1146;-64
2022/12/14 07:01:37;;;;;;;;;;;21.80;59.40;;;;;;1536748;76;754;-63
2022/12/14 07:03:39;;;;;;;;;;;21.70;59.30;;;;;;1531998;76;790;-64
2022/12/14 07:05:41;;;;;;;;;;;21.70;59.30;;;;;;1536018;76;728;-63
2022/12/14 07:07:43;;;;;;;;;;;21.70;59.30;;;;;;1535614;76;1536;-64
2022/12/14 07:09:45;;;;;;;;;;;21.70;59.20;;;;;;1534879;76;1127;-63
2022/12/14 07:11:49;;;;;;;;;;;21.70;59.20;;;;;;1536160;76;787;-63
2022/12/14 07:13:52;;;;;;;;;;;21.70;59.20;;;;;;1540806;76;881;-62
2022/12/14 07:15:54;;;;;;;;;;;21.60;59.10;;;;;;1533953;76;737;-63
2022/12/14 07:17:56;;;;;;;;;;;21.60;59.10;;;;;;1535422;76;1169;-63
2022/12/14 07:19:58;;;;;;;;;;;21.50;59.10;;;;;;1536705;76;681;-63
2022/12/14 07:22:03;;;;;;;;;;;21.60;59.10;;;;;;1536362;76;1548;-63
2022/12/14 07:24:03;;;;;;;;;;;21.60;59.10;;;;;;1532597;76;1697;-64
2022/12/14 07:26:06;;;;;;;;;;;21.60;58.90;;;;;;1534969;76;800;-66
2022/12/14 07:28:08;;;;;;;;;;;21.50;59.30;;;;;;1537705;76;1130;-64
2022/12/14 07:30:10;;;;;;;;;;;21.50;59.40;;;;;;1533379;76;914;-64
2022/12/14 07:32:12;;;;;;;;;;;21.50;59.60;;;;;;1536854;76;1927;-64
2022/12/14 07:34:14;;;;;;;;;;;21.50;59.50;;;;;;1536787;76;758;-65
2022/12/14 07:36:16;;;;;;;;;;;21.50;59.40;;;;;;1536220;76;1739;-65
2022/12/14 07:38:18;;;;;;;;;;;21.50;59.30;;;;;;1536346;76;1138;-64
2022/12/14 07:40:20;;;;;;;;;;;21.50;59.30;;;;;;1536365;76;739;-64
2022/12/14 07:42:22;;;;;;;;;;;21.50;59.20;;;;;;1536631;76;669;-66
2022/12/14 07:44:24;;;;;;;;;;;21.50;59.10;;;;;;1535842;76;852;-63
2022/12/14 07:46:26;;;;;;;;;;;21.50;59.10;;;;;;1536968;76;664;-64
2022/12/14 07:48:28;;;;;;;;;;;21.50;59.10;;;;;;1536690;76;1569;-65
2022/12/14 07:50:30;;;;;;;;;;;21.50;59.20;;;;;;1533796;76;782;-65
2022/12/14 07:52:32;;;;;;;;;;;21.50;59.30;;;;;;1530206;76;1938;-67
2022/12/14 07:54:34;;;;;;;;;;;21.50;59.20;;;;;;1529807;76;742;-63
2022/12/14 07:56:36;;;;;;;;;;;21.50;59.30;;;;;;1535090;76;784;-63
2022/12/14 07:58:41;;;;;;;;;;;21.50;59.30;;;;;;1535586;76;1142;-66
2022/12/14 08:00:43;;;;;;;;;;;21.50;59.30;;;;;;1535137;76;669;-67
2022/12/14 08:02:45;;;;;;;;;;;21.40;59.20;;;;;;1532085;76;1567;-65
2022/12/14 08:04:46;;;;;;;;;;;21.50;59.30;;;;;;1533917;76;767;-64
2022/12/14 08:06:48;;;;;;;;;;;21.50;59.30;;;;;;1513842;76;876;-64
2022/12/14 08:08:51;;;;;;;;;;;21.50;59.30;;;;;;1534119;76;1106;-64
2022/12/14 08:10:52;;;;;;;;;;;21.50;59.30;;;;;;1534148;76;810;-63
2022/12/14 08:12:54;;;;;;;;;;;21.50;59.30;;;;;;1518380;76;1988;-65
2022/12/14 08:14:56;;;;;;;;;;;21.40;59.20;;;;;;1531168;76;650;-63
2022/12/14 08:16:58;;;;;;;;;;;21.40;59.20;;;;;;1528403;76;1550;-63
2022/12/14 08:19:00;;;;;;;;;;;21.40;59.20;;;;;;1535878;76;1170;-64
2022/12/14 08:21:03;;;;;;;;;;;21.50;59.30;;;;;;1535213;76;774;-62
2022/12/14 08:23:05;;;;;;;;;;;21.40;59.20;;;;;;1536364;76;726;-63
2022/12/14 08:25:07;;;;;;;;;;;21.40;59.20;;;;;;1533245;76;676;-63
2022/12/14 08:27:09;;;;;;;;;;;21.40;59.20;;;;;;1536434;76;786;-63
2022/12/14 08:29:13;;;;;;;;;;;21.40;59.10;;;;;;1537233;76;1136;-63
2022/12/14 08:31:16;;;;;;;;;;;21.40;59.10;;;;;;1534075;76;1539;-63
2022/12/14 08:33:18;;;;;;;;;;;21.40;59.10;;;;;;1537084;76;1937;-62
2022/12/14 08:35:20;;;;;;;;;;;21.40;59.10;;;;;;1528078;76;724;-63
2022/12/14 08:37:22;;;;;;;;;;;21.40;59.10;;;;;;1535971;76;814;-63
2022/12/14 08:39:24;;;;;;;;;;;21.40;59.10;;;;;;1514535;76;1119;-63
2022/12/14 08:41:25;;;;;;;;;;;21.40;59.10;;;;;;1541493;76;784;-64
2022/12/14 08:43:27;;;;;;;;;;;21.40;59.10;;;;;;1535318;76;749;-64
2022/12/14 08:45:29;;;;;;;;;;;21.40;59.10;;;;;;1537106;76;1596;-64
2022/12/14 08:47:31;;;;;;;;;;;21.40;59.10;;;;;;1538106;76;772;-64
2022/12/14 08:49:33;;;;;;;;;;;21.40;59.10;;;;;;1534871;76;1124;-65
2022/12/14 08:51:36;;;;;;;;;;;21.40;59.10;;;;;;1535510;76;720;-63
2022/12/14 08:53:38;;;;;;;;;;;21.40;59.10;;;;;;1536532;76;1916;-64
2022/12/14 08:55:40;;;;;;;;;;;21.40;59.10;;;;;;1536522;76;735;-63
2022/12/14 08:57:42;;;;;;;;;;;21.30;59.10;;;;;;1535335;76;724;-64
2022/12/14 08:59:44;;;;;;;;;;;21.40;59.10;;;;;;1536868;76;1582;-63
2022/12/14 09:01:46;;;;;;;;;;;21.30;59.10;;;;;;1530808;76;779;-64
2022/12/14 09:03:48;;;;;;;;;;;21.30;59.10;;;;;;1533993;76;908;-63
2022/12/14 09:05:50;;;;;;;;;;;21.30;59.10;;;;;;1535338;76;824;-64
2022/12/14 09:07:52;;;;;;;;;;;21.30;59.10;;;;;;1537060;76;825;-64
2022/12/14 09:09:54;;;;;;;;;;;21.30;59.00;;;;;;1533626;76;1150;-64
2022/12/14 09:11:55;;;;;;;;;;;21.30;59.00;;;;;;1529613;76;693;-64
2022/12/14 09:13:57;;;;;;;;;;;21.30;59.00;;;;;;1533582;76;1924;-64
2022/12/14 09:16:00;;;;;;;;;;;21.30;59.00;;;;;;1530713;76;694;-64
2022/12/14 09:18:02;;;;;;;;;;;21.30;59.00;;;;;;1529171;76;1186;-64
2022/12/14 09:20:04;;;;;;;;;;;21.30;59.00;;;;;;1536794;76;759;-64
2022/12/14 09:22:06;;;;;;;;;;;21.30;59.00;;;;;;1535874;76;720;-64
2022/12/14 09:24:08;;;;;;;;;;;21.30;59.00;;;;;;1531681;76;657;-64
2022/12/14 09:26:15;;;;;;;;;;;21.30;59.00;;;;;;1535214;76;667;-64
2022/12/14 09:28:17;;;;;;;;;;;21.30;59.00;;;;;;1531530;76;1837;-65
2022/12/14 09:30:19;;;;;;;;;;;21.30;59.00;;;;;;1534588;76;745;-64
2022/12/14 09:32:21;;;;;;;;;;;21.30;59.00;;;;;;1531297;76;703;-65
2022/12/14 09:34:24;;;;;;;;;;;21.30;59.00;;;;;;1532238;76;1939;-66
2022/12/14 09:36:26;;;;;;;;;;;21.30;58.90;;;;;;1536027;76;917;-65
2022/12/14 09:38:29;;;;;;;;;;;21.20;58.90;;;;;;1537447;76;1136;-65
2022/12/14 09:40:31;;;;;;;;;;;21.30;58.90;;;;;;1536132;76;793;-65
2022/12/14 09:42:37;;;;;;;;;;;21.30;59.00;;;;;;1491974;77;1592;-65
2022/12/14 09:44:46;;;;;;;;;;;21.30;59.00;;;;;;1530652;76;739;-65
2022/12/14 09:47:07;;;;;;;;;;;21.30;58.90;;;;;;1536279;76;776;-65
2022/12/14 09:49:16;;;;;;;;;;;21.30;59.00;;;;;;1535225;76;1142;-65
2022/12/14 09:51:19;;;;;;;;;;;21.30;59.00;;;;;;1530916;76;1770;-65
2022/12/14 09:53:21;;;;;;;;;;;21.30;58.90;;;;;;1536316;76;1937;-66
2022/12/14 09:55:30;;;;;;;;;;;21.30;58.90;;;;;;1536093;76;1538;-66
2022/12/14 09:57:36;;;;;;;;;;;21.30;58.90;;;;;;1521530;76;743;-66
2022/12/14 09:59:39;;;;;;;;;;;21.30;58.80;;;;;;1522126;76;1145;-66
2022/12/14 10:01:54;;;;;;;;;;;21.30;58.80;;;;;;1534331;76;806;-66
2022/12/14 10:04:14;;;;;;;;;;;21.30;58.80;;;;;;1535827;76;795;-66
2022/12/14 10:06:23;;;;;;;;;;;21.30;58.80;;;;;;1532555;76;819;-66
2022/12/14 10:08:26;;;;;;;;;;;21.30;58.80;;;;;;1536943;76;1146;-66
2022/12/14 10:10:29;;;;;;;;;;;21.30;58.70;;;;;;1526683;76;1534;-66
2022/12/14 10:12:42;;;;;;;;;;;21.20;58.70;;;;;;1532353;76;1862;-66
2022/12/14 10:14:51;;;;;;;;;;;21.20;58.70;;;;;;1536361;76;1963;-66
2022/12/14 10:16:55;;;;;;;;;;;21.30;58.80;;;;;;1533860;76;1777;-67
2022/12/14 10:19:08;;;;;;;;;;;21.20;58.70;;;;;;1534703;76;1160;-67
2022/12/14 10:21:11;;;;;;;;;;;21.20;58.70;;;;;;1539137;76;723;-67
2022/12/14 10:23:14;;;;;;;;;;;21.30;58.80;;;;;;1534169;76;1349;-67
2022/12/14 10:25:17;;;;;;;;;;;21.30;58.80;;;;;;1533930;76;784;-67
2022/12/14 10:27:26;;;;;;;;;;;21.30;58.80;;;;;;1529592;76;839;-67
2022/12/14 10:29:33;;;;;;;;;;;21.30;58.90;;;;;;1534967;76;1142;-67
2022/12/14 10:31:36;;;;;;;;;;;21.30;58.90;;;;;;1525130;76;1968;-66
2022/12/14 10:33:38;;;;;;;;;;;21.30;58.90;;;;;;1536212;76;1924;-66
2022/12/14 10:35:42;;;;;;;;;;;21.30;58.90;;;;;;1538740;76;836;-66
2022/12/14 10:37:45;;;;;;;;;;;21.20;58.80;;;;;;1537249;76;1545;-66
2022/12/14 10:39:55;;;;;;;;;;;21.20;58.80;;;;;;1515814;76;1115;-66
2022/12/14 10:41:58;;;;;;;;;;;21.20;58.80;;;;;;1532898;76;738;-64
2022/12/14 10:44:02;;;;;;;;;;;21.20;58.80;;;;;;1532429;76;785;-65
2022/12/14 10:46:14;;;;;;;;;;;21.30;58.90;;;;;;1532819;76;835;-66
2022/12/14 10:48:17;;;;;;;;;;;21.30;59.00;;;;;;1533312;76;2122;-65
2022/12/14 10:50:30;;;;;;;;;;;21.20;58.80;;;;;;1540482;76;744;-65
2022/12/14 10:52:33;;;;;;;;;;;21.30;58.90;;;;;;1531477;76;1892;-67
2022/12/14 10:54:38;;;;;;;;;;;21.30;58.90;;;;;;1530074;76;1931;-66
2022/12/14 10:56:41;;;;;;;;;;;21.30;58.80;;;;;;1531935;76;749;-67
2022/12/14 10:58:43;;;;;;;;;;;21.30;58.90;;;;;;1532403;76;1169;-67
2022/12/14 11:00:45;;;;;;;;;;;21.30;58.90;;;;;;1524942;76;705;-67
2022/12/14 11:02:48;;;;;;;;;;;21.30;58.80;;;;;;1536787;76;748;-65
2022/12/14 11:04:53;;;;;;;;;;;21.40;58.90;;;;;;1532155;76;1595;-66
2022/12/14 11:06:58;;;;;;;;;;;21.30;58.80;;;;;;1522973;76;1677;-66
2022/12/14 11:09:00;;;;;;;;;;;21.40;58.70;;;;;;1533674;76;1213;-67
2022/12/14 11:11:09;;;;;;;;;;;21.30;58.70;;;;;;1519676;76;804;-67
2022/12/14 11:13:14;;;;;;;;;;;21.40;58.70;;;;;;1533344;76;641;-67
2022/12/14 11:15:23;;;;;;;;;;;21.30;58.70;;;;;;1528670;76;774;-67
2022/12/14 11:17:41;;;;;;;;;;;21.30;58.70;;;;;;1530937;76;773;-66
2022/12/14 11:19:43;;;;;;;;;;;21.30;58.60;;;;;;1536466;76;1575;-66
2022/12/14 11:21:45;;;;;;;;;;;21.30;58.60;;;;;;1536042;76;717;-67
2022/12/14 11:23:47;;;;;;;;;;;21.40;58.60;;;;;;1531152;76;723;-67
2022/12/14 11:25:49;;;;;;;;;;;21.30;58.60;;;;;;1503984;77;1448;-67
2022/12/14 11:27:51;;;;;;;;;;;21.30;58.60;;;;;;1534465;76;674;-66
2022/12/14 11:29:53;;;;;;;;;;;21.30;58.60;;;;;;1533764;76;1154;-66
2022/12/14 11:31:55;;;;;;;;;;;21.40;58.50;;;;;;1536738;76;707;-67
2022/12/14 11:33:57;;;;;;;;;;;21.30;58.60;;;;;;1538778;76;2100;-66
2022/12/14 11:35:59;;;;;;;;;;;21.30;58.50;;;;;;1536728;76;730;-66
2022/12/14 11:38:01;;;;;;;;;;;21.30;58.50;;;;;;1530074;76;1133;-67
2022/12/14 11:40:04;;;;;;;;;;;21.40;58.50;;;;;;1527563;76;705;-67
2022/12/14 11:42:06;;;;;;;;;;;21.30;58.50;;;;;;1532673;76;723;-67
2022/12/14 11:44:15;;;;;;;;;;;21.40;58.50;;;;;;1537111;76;706;-66
2022/12/14 11:46:19;;;;;;;;;;;21.30;58.50;;;;;;1537209;76;679;-67
2022/12/14 11:48:21;;;;;;;;;;;21.30;58.50;;;;;;1536815;76;1623;-67
2022/12/14 11:50:24;;;;;;;;;;;21.40;58.50;;;;;;1531711;76;729;-66
2022/12/14 11:52:26;;;;;;;;;;;21.30;58.50;;;;;;1536609;76;763;-66
2022/12/14 11:54:28;;;;;;;;;;;21.40;58.50;;;;;;1497228;77;1937;-66
2022/12/14 11:56:30;;;;;;;;;;;21.30;58.50;;;;;;1499575;78;766;-66
2022/12/14 11:58:33;;;;;;;;;;;21.30;58.50;;;;;;1464239;80;1143;-67
2022/12/14 12:00:53;;;;;;;;;;;21.30;58.40;;;;;;1463879;79;672;-67
2022/12/14 12:02:56;;;;;;;;;;;21.30;58.40;;;;;;1475421;79;1583;-67
2022/12/14 12:05:00;;;;;;;;;;;21.30;58.40;;;;;;1466497;79;1930;-66
2022/12/14 12:07:03;;;;;;;;;;;21.30;58.40;;;;;;1491944;78;1022;-66
2022/12/14 12:09:07;;;;;;;;;;;21.30;58.50;;;;;;1490543;78;1860;-66
2022/12/14 12:11:10;;;;;;;;;;;21.30;58.40;;;;;;1492595;78;2154;-67
2022/12/14 12:13:23;;;;;;;;;;;21.30;58.40;;;;;;1483650;78;1794;-66
2022/12/14 12:15:26;;;;;;;;;;;21.30;58.40;;;;;;1487270;78;1955;-66
2022/12/14 12:17:39;;;;;;;;;;;21.30;58.40;;;;;;1474923;78;1762;-66
2022/12/14 12:19:41;;;;;;;;;;;21.30;58.40;;;;;;1490564;78;1371;-66
2022/12/14 12:21:43;;;;;;;;;;;21.30;58.40;;;;;;1487532;78;702;-67
2022/12/14 12:23:49;;;;;;;;;;;21.30;58.40;;;;;;1483097;78;672;-66
2022/12/14 12:25:51;;;;;;;;;;;21.30;58.40;;;;;;1491963;78;816;-66